Time;durP1;ratioP1;P1;durP2;ratioP2;P2;SDS_P1;SDS_P2;PMS_P1;PMS_P2;Temp;Humidity;BMP_temperature;BMP_pressure;BME280_temperature;BME280_humidity;BME280_pressure;Samples;Min_cycle;Max_cycle;Signal;HPM_P1;HPM_P2
2022/11/27 00:00:41;;;;;;;;;;;11.70;99.90;;;;;;5092933;28;19964;-74
2022/11/27 00:03:06;;;;;;;;;;;11.70;99.90;;;;;;5092677;28;19912;-75
2022/11/27 00:05:32;;;;;;;;;;;11.60;99.90;;;;;;5092984;28;20266;-75
2022/11/27 00:07:57;;;;;;;;;;;11.60;99.90;;;;;;5092571;28;19908;-74
2022/11/27 00:10:23;;;;;;;;;;;11.50;99.90;;;;;;5092542;28;19904;-74
2022/11/27 00:12:49;;;;;;;;;;;11.50;99.90;;;;;;5074867;28;19981;-74
2022/11/27 00:15:14;;;;;;;;;;;11.40;99.90;;;;;;5074521;28;20412;-75
2022/11/27 00:17:40;;;;;;;;;;;11.40;99.90;;;;;;5093084;28;19914;-74
2022/11/27 00:20:06;;;;;;;;;;;11.30;99.90;;;;;;5092535;28;20023;-74
2022/11/27 00:22:32;;;;;;;;;;;11.20;99.90;;;;;;5092607;28;19965;-75
2022/11/27 00:24:57;;;;;;;;;;;11.20;99.90;;;;;;5092756;28;19947;-75
2022/11/27 00:27:23;;;;;;;;;;;11.20;99.90;;;;;;5092342;28;20062;-75
2022/11/27 00:29:49;;;;;;;;;;;11.10;99.90;;;;;;5092678;28;20391;-74
2022/11/27 00:32:14;;;;;;;;;;;11.10;99.90;;;;;;5092290;28;19908;-75
2022/11/27 00:34:40;;;;;;;;;;;11.10;99.90;;;;;;5092861;28;20350;-76
2022/11/27 00:37:06;;;;;;;;;;;11.10;99.90;;;;;;5092327;28;19931;-75
2022/11/27 00:39:31;;;;;;;;;;;11.10;99.90;;;;;;5092770;28;19912;-76
2022/11/27 00:41:57;;;;;;;;;;;11.10;99.90;;;;;;5093111;28;19912;-76
2022/11/27 00:44:23;;;;;;;;;;;11.10;99.90;;;;;;5092912;28;19908;-76
2022/11/27 00:46:48;;;;;;;;;;;11.10;99.90;;;;;;5093159;28;19919;-75
2022/11/27 00:49:14;;;;;;;;;;;11.00;99.90;;;;;;5092502;28;19908;-76
2022/11/27 00:51:40;;;;;;;;;;;11.00;99.90;;;;;;5092714;28;20017;-76
2022/11/27 00:54:06;;;;;;;;;;;10.90;99.90;;;;;;5092668;28;19912;-73
2022/11/27 00:56:33;;;;;;;;;;;10.90;99.90;;;;;;5092533;28;19920;-75
2022/11/27 00:58:59;;;;;;;;;;;10.90;99.90;;;;;;5092569;28;19919;-74
2022/11/27 01:01:29;;;;;;;;;;;10.90;99.90;;;;;;5092426;28;19965;-74
2022/11/27 01:03:55;;;;;;;;;;;10.90;99.90;;;;;;5074417;28;19957;-75
2022/11/27 01:06:21;;;;;;;;;;;10.90;99.90;;;;;;5092382;28;19915;-74
2022/11/27 01:08:47;;;;;;;;;;;10.90;99.90;;;;;;5092817;28;20307;-74
2022/11/27 01:11:14;;;;;;;;;;;10.90;99.90;;;;;;5092368;28;19908;-74
2022/11/27 01:13:40;;;;;;;;;;;10.80;99.90;;;;;;5092844;28;19912;-75
2022/11/27 01:16:07;;;;;;;;;;;10.80;99.90;;;;;;5092358;28;20309;-76
2022/11/27 01:18:34;;;;;;;;;;;10.90;99.90;;;;;;5092736;28;20344;-77
2022/11/27 01:21:00;;;;;;;;;;;10.90;99.90;;;;;;5093963;28;19961;-74
2022/11/27 01:23:25;;;;;;;;;;;10.80;99.90;;;;;;5095947;28;20560;-74
2022/11/27 01:25:54;;;;;;;;;;;10.90;99.90;;;;;;5096112;28;19909;-74
2022/11/27 01:28:20;;;;;;;;;;;10.80;99.90;;;;;;5095634;28;19927;-74
2022/11/27 01:30:46;;;;;;;;;;;10.80;99.90;;;;;;5096128;28;19943;-74
2022/11/27 01:33:11;;;;;;;;;;;10.70;99.90;;;;;;5095467;28;19931;-77
2022/11/27 01:35:37;;;;;;;;;;;10.70;99.90;;;;;;5077978;28;19961;-77
2022/11/27 01:38:02;;;;;;;;;;;10.70;99.90;;;;;;5096188;28;19915;-77
2022/11/27 01:40:28;;;;;;;;;;;10.70;99.90;;;;;;5077284;28;20353;-77
2022/11/27 01:42:54;;;;;;;;;;;10.70;99.90;;;;;;5096298;28;19915;-77
2022/11/27 01:45:20;;;;;;;;;;;10.70;99.90;;;;;;5095278;28;19912;-77
2022/11/27 01:47:47;;;;;;;;;;;10.70;99.90;;;;;;5077854;28;19914;-76
2022/11/27 01:50:15;;;;;;;;;;;10.60;99.90;;;;;;5095425;28;19916;-77
2022/11/27 01:52:44;;;;;;;;;;;10.60;99.90;;;;;;5095697;28;19908;-77
2022/11/27 01:55:19;;;;;;;;;;;10.60;99.90;;;;;;5095195;28;20408;-76
2022/11/27 01:57:47;;;;;;;;;;;10.60;99.90;;;;;;5095078;28;19921;-77
2022/11/27 02:00:13;;;;;;;;;;;10.60;99.90;;;;;;5110862;28;19912;-77
2022/11/27 02:02:40;;;;;;;;;;;10.60;99.90;;;;;;5095330;28;19916;-77
2022/11/27 02:05:05;;;;;;;;;;;10.50;99.90;;;;;;5110931;28;19963;-77
2022/11/27 02:07:31;;;;;;;;;;;10.50;99.90;;;;;;5076731;28;19908;-77
2022/11/27 02:09:56;;;;;;;;;;;10.60;99.90;;;;;;5077057;28;19914;-77
2022/11/27 02:12:45;;;;;;;;;;;10.60;99.90;;;;;;5110814;28;19965;-77
2022/11/27 02:15:10;;;;;;;;;;;10.60;99.90;;;;;;5094679;28;19908;-76
2022/11/27 02:17:48;;;;;;;;;;;10.60;99.90;;;;;;5094981;28;19917;-77
2022/11/27 02:20:21;;;;;;;;;;;10.60;99.90;;;;;;5094792;28;19941;-76
2022/11/27 02:22:46;;;;;;;;;;;10.60;99.90;;;;;;5094782;28;19943;-77
2022/11/27 02:25:27;;;;;;;;;;;10.60;99.90;;;;;;5076830;28;19916;-76
2022/11/27 02:28:08;;;;;;;;;;;10.50;99.90;;;;;;5094937;28;19994;-77
2022/11/27 02:30:37;;;;;;;;;;;10.50;99.90;;;;;;5094623;28;19908;-76
2022/11/27 02:33:05;;;;;;;;;;;10.50;99.90;;;;;;5094789;28;20392;-77
2022/11/27 02:35:36;;;;;;;;;;;10.50;99.90;;;;;;5094235;28;19904;-77
2022/11/27 02:38:07;;;;;;;;;;;10.40;99.90;;;;;;5094552;28;19908;-77
2022/11/27 02:40:43;;;;;;;;;;;10.50;99.90;;;;;;5094389;28;20513;-77
2022/11/27 02:43:24;;;;;;;;;;;10.40;99.90;;;;;;5094802;28;19908;-77
2022/11/27 02:45:50;;;;;;;;;;;10.40;99.90;;;;;;5094854;28;19933;-77
2022/11/27 02:48:18;;;;;;;;;;;10.40;99.90;;;;;;5076149;28;19915;-77
2022/11/27 02:50:45;;;;;;;;;;;10.30;99.90;;;;;;5094296;28;19915;-77
2022/11/27 02:53:13;;;;;;;;;;;10.30;99.90;;;;;;5094724;28;19953;-77
2022/11/27 02:55:39;;;;;;;;;;;10.30;99.90;;;;;;5094354;28;19941;-77
2022/11/27 02:58:07;;;;;;;;;;;10.30;99.90;;;;;;5094402;28;19996;-76
2022/11/27 03:00:33;;;;;;;;;;;10.30;99.90;;;;;;5093810;28;19947;-77
2022/11/27 03:03:02;;;;;;;;;;;10.30;99.90;;;;;;5094185;28;19947;-77
2022/11/27 03:05:31;;;;;;;;;;;10.30;99.90;;;;;;5094032;28;19908;-76
2022/11/27 03:08:14;;;;;;;;;;;10.30;99.90;;;;;;5094243;28;20017;-77
2022/11/27 03:10:48;;;;;;;;;;;10.30;99.90;;;;;;5094260;28;19965;-76
2022/11/27 03:13:14;;;;;;;;;;;10.20;99.90;;;;;;5094047;28;19954;-76
2022/11/27 03:15:54;;;;;;;;;;;10.20;99.90;;;;;;5093920;28;19916;-77
2022/11/27 03:18:25;;;;;;;;;;;10.20;99.90;;;;;;5075421;28;19973;-76
2022/11/27 03:20:56;;;;;;;;;;;10.10;99.90;;;;;;5094142;28;19998;-76
2022/11/27 03:23:21;;;;;;;;;;;10.10;99.90;;;;;;5093715;28;20006;-76
2022/11/27 03:25:47;;;;;;;;;;;10.10;99.90;;;;;;5094129;28;19951;-77
2022/11/27 03:28:13;;;;;;;;;;;10.10;99.90;;;;;;5094182;28;19941;-77
2022/11/27 03:30:39;;;;;;;;;;;10.10;99.90;;;;;;5093518;28;19961;-77
2022/11/27 03:33:05;;;;;;;;;;;10.10;99.90;;;;;;5093564;28;19998;-77
2022/11/27 03:35:30;;;;;;;;;;;10.10;99.90;;;;;;5093199;28;19951;-77
2022/11/27 03:37:56;;;;;;;;;;;10.10;99.90;;;;;;5093585;28;20478;-77
2022/11/27 03:40:26;;;;;;;;;;;10.10;99.90;;;;;;5093370;28;19966;-76
2022/11/27 03:42:54;;;;;;;;;;;10.00;99.90;;;;;;5093345;28;19908;-77
2022/11/27 03:45:29;;;;;;;;;;;10.00;99.90;;;;;;5092978;28;19912;-76
2022/11/27 03:48:08;;;;;;;;;;;10.00;99.90;;;;;;5093733;28;19912;-77
2022/11/27 03:50:41;;;;;;;;;;;10.10;99.90;;;;;;5093564;28;19908;-77
2022/11/27 03:53:15;;;;;;;;;;;10.00;99.90;;;;;;5093803;28;19908;-76
2022/11/27 03:55:59;;;;;;;;;;;10.10;99.90;;;;;;5092919;28;19958;-77
2022/11/27 03:58:25;;;;;;;;;;;10.10;99.90;;;;;;5092811;28;19923;-78
2022/11/27 04:00:51;;;;;;;;;;;10.00;99.90;;;;;;5093561;28;19912;-77
2022/11/27 04:03:22;;;;;;;;;;;10.00;99.90;;;;;;5092868;28;19908;-76
2022/11/27 04:05:47;;;;;;;;;;;10.00;99.90;;;;;;5093655;28;19915;-76
2022/11/27 04:08:13;;;;;;;;;;;10.00;99.90;;;;;;5093466;28;19909;-74
2022/11/27 04:10:38;;;;;;;;;;;10.00;99.90;;;;;;5093004;28;19997;-77
2022/11/27 04:13:04;;;;;;;;;;;10.00;99.90;;;;;;5093193;28;19908;-77
2022/11/27 04:15:32;;;;;;;;;;;10.00;99.90;;;;;;5092808;28;19951;-77
2022/11/27 04:17:58;;;;;;;;;;;10.00;99.90;;;;;;5092936;28;19914;-78
2022/11/27 04:20:23;;;;;;;;;;;10.00;99.90;;;;;;5092810;28;20359;-77
2022/11/27 04:22:49;;;;;;;;;;;10.00;99.90;;;;;;5093049;28;19912;-78
2022/11/27 04:25:14;;;;;;;;;;;9.90;99.90;;;;;;5093262;28;19916;-77
2022/11/27 04:27:40;;;;;;;;;;;9.80;99.90;;;;;;5092770;28;19908;-75
2022/11/27 04:30:06;;;;;;;;;;;9.80;99.90;;;;;;5092583;28;20323;-74
2022/11/27 04:32:32;;;;;;;;;;;9.80;99.90;;;;;;5092456;28;19915;-75
2022/11/27 04:34:57;;;;;;;;;;;9.80;99.90;;;;;;5093221;28;19908;-74
2022/11/27 04:37:23;;;;;;;;;;;9.70;99.90;;;;;;5092712;28;20273;-74
2022/11/27 04:39:48;;;;;;;;;;;9.60;99.90;;;;;;5093340;28;19950;-74
2022/11/27 04:42:14;;;;;;;;;;;9.70;99.90;;;;;;5092918;28;20007;-74
2022/11/27 04:44:39;;;;;;;;;;;9.70;99.90;;;;;;5092629;28;19908;-74
2022/11/27 04:47:05;;;;;;;;;;;9.70;99.90;;;;;;5093025;28;20003;-75
2022/11/27 04:49:30;;;;;;;;;;;9.70;99.90;;;;;;5092755;28;20307;-74
2022/11/27 04:51:56;;;;;;;;;;;9.70;99.90;;;;;;5092945;28;19908;-74
2022/11/27 04:54:22;;;;;;;;;;;9.70;99.90;;;;;;5093437;28;19954;-74
2022/11/27 04:56:47;;;;;;;;;;;9.80;99.90;;;;;;5078383;28;19919;-74
2022/11/27 04:59:13;;;;;;;;;;;9.80;99.90;;;;;;5096621;28;20237;-74
2022/11/27 05:01:38;;;;;;;;;;;9.70;99.90;;;;;;5096715;28;19912;-74
2022/11/27 05:04:04;;;;;;;;;;;9.70;99.90;;;;;;5097118;28;19919;-77
2022/11/27 05:06:29;;;;;;;;;;;9.70;99.90;;;;;;5096286;28;20322;-77
2022/11/27 05:09:01;;;;;;;;;;;9.70;99.90;;;;;;5097113;28;19908;-76
2022/11/27 05:11:27;;;;;;;;;;;9.70;99.90;;;;;;5096292;28;19908;-77
2022/11/27 05:14:13;;;;;;;;;;;9.60;99.90;;;;;;5096418;28;19915;-77
2022/11/27 05:16:53;;;;;;;;;;;9.60;99.90;;;;;;5095424;28;19908;-77
2022/11/27 05:19:20;;;;;;;;;;;9.60;99.90;;;;;;5095943;28;19912;-77
2022/11/27 05:21:46;;;;;;;;;;;9.60;99.90;;;;;;5096029;28;19916;-77
2022/11/27 05:24:12;;;;;;;;;;;9.60;99.90;;;;;;5096187;28;19908;-77
2022/11/27 05:26:38;;;;;;;;;;;9.60;99.90;;;;;;5095944;28;19947;-77
2022/11/27 05:29:04;;;;;;;;;;;9.70;99.90;;;;;;5096210;28;19912;-76
2022/11/27 05:31:30;;;;;;;;;;;9.70;99.90;;;;;;5095700;28;19912;-75
2022/11/27 05:33:55;;;;;;;;;;;9.60;99.90;;;;;;5096025;28;19914;-75
2022/11/27 05:36:21;;;;;;;;;;;9.50;99.90;;;;;;5077988;28;20246;-75
2022/11/27 05:38:47;;;;;;;;;;;9.50;99.90;;;;;;5095337;28;20254;-75
2022/11/27 05:41:13;;;;;;;;;;;9.50;99.90;;;;;;5095977;28;19919;-75
2022/11/27 05:43:38;;;;;;;;;;;9.50;99.90;;;;;;5095726;28;19908;-75
2022/11/27 05:46:10;;;;;;;;;;;9.50;99.90;;;;;;5095941;28;19939;-75
2022/11/27 05:48:35;;;;;;;;;;;9.50;99.90;;;;;;5077219;28;20329;-74
2022/11/27 05:51:01;;;;;;;;;;;9.60;99.90;;;;;;5095615;28;19952;-75
2022/11/27 05:53:27;;;;;;;;;;;9.60;99.90;;;;;;5110987;28;19908;-74
2022/11/27 05:55:53;;;;;;;;;;;9.60;99.90;;;;;;5095323;28;20397;-75
2022/11/27 05:58:19;;;;;;;;;;;9.70;99.90;;;;;;5095695;28;20365;-75
2022/11/27 06:00:45;;;;;;;;;;;9.70;99.90;;;;;;5094913;28;19908;-75
2022/11/27 06:03:10;;;;;;;;;;;9.70;99.90;;;;;;5095676;28;20004;-75
2022/11/27 06:05:39;;;;;;;;;;;9.70;99.90;;;;;;5095160;28;20369;-75
2022/11/27 06:08:04;;;;;;;;;;;9.70;99.90;;;;;;5094807;28;20319;-75
2022/11/27 06:10:30;;;;;;;;;;;9.60;99.90;;;;;;5094654;28;19915;-74
2022/11/27 06:12:55;;;;;;;;;;;9.70;99.90;;;;;;5095595;28;19974;-74
2022/11/27 06:15:21;;;;;;;;;;;9.70;99.90;;;;;;5095161;28;19914;-74
2022/11/27 06:17:50;;;;;;;;;;;9.60;99.90;;;;;;5110425;28;20494;-75
2022/11/27 06:20:16;;;;;;;;;;;9.50;99.90;;;;;;5095241;28;19912;-75
2022/11/27 06:22:41;;;;;;;;;;;9.50;99.90;;;;;;5095171;28;19999;-75
2022/11/27 06:25:07;;;;;;;;;;;9.50;99.90;;;;;;5095205;28;20361;-75
2022/11/27 06:27:33;;;;;;;;;;;9.40;99.90;;;;;;5094530;28;19908;-74
2022/11/27 06:29:58;;;;;;;;;;;9.40;99.90;;;;;;5094973;28;19912;-74
2022/11/27 06:32:24;;;;;;;;;;;9.40;99.90;;;;;;5094902;28;19908;-75
2022/11/27 06:34:49;;;;;;;;;;;9.40;99.90;;;;;;5076460;28;20053;-75
2022/11/27 06:37:15;;;;;;;;;;;9.40;99.90;;;;;;5094859;28;19908;-74
2022/11/27 06:39:41;;;;;;;;;;;9.40;99.90;;;;;;5094448;28;20310;-75
2022/11/27 06:42:06;;;;;;;;;;;9.40;99.90;;;;;;5094900;28;20024;-75
2022/11/27 06:44:32;;;;;;;;;;;9.50;99.90;;;;;;5094146;28;19915;-74
2022/11/27 06:46:57;;;;;;;;;;;9.40;99.90;;;;;;5094464;28;20311;-75
2022/11/27 06:49:23;;;;;;;;;;;9.50;99.90;;;;;;5094802;28;19908;-75
2022/11/27 06:51:49;;;;;;;;;;;9.50;99.90;;;;;;5094179;28;19916;-75
2022/11/27 06:54:15;;;;;;;;;;;9.50;99.90;;;;;;5094508;28;19908;-75
2022/11/27 06:56:40;;;;;;;;;;;9.50;99.90;;;;;;5093800;28;19920;-75
2022/11/27 06:59:06;;;;;;;;;;;9.50;99.90;;;;;;5094496;28;19977;-75
2022/11/27 07:01:33;;;;;;;;;;;9.40;99.90;;;;;;5093893;28;19958;-74
2022/11/27 07:03:58;;;;;;;;;;;9.50;99.90;;;;;;5093841;28;19908;-74
2022/11/27 07:06:25;;;;;;;;;;;9.50;99.90;;;;;;5094721;28;20003;-74
2022/11/27 07:08:51;;;;;;;;;;;9.50;99.90;;;;;;5093843;28;19904;-75
2022/11/27 07:11:18;;;;;;;;;;;9.50;99.90;;;;;;5094202;28;19908;-74
2022/11/27 07:13:45;;;;;;;;;;;9.40;99.90;;;;;;5075621;28;19912;-75
2022/11/27 07:16:11;;;;;;;;;;;9.40;99.90;;;;;;5094120;28;19920;-75
2022/11/27 07:18:39;;;;;;;;;;;9.40;99.90;;;;;;5092733;28;19951;-74
2022/11/27 07:21:04;;;;;;;;;;;9.40;99.90;;;;;;5093823;28;19923;-74
2022/11/27 07:23:30;;;;;;;;;;;9.40;99.90;;;;;;5093482;28;19920;-74
2022/11/27 07:25:56;;;;;;;;;;;9.40;99.90;;;;;;5094324;28;20356;-75
2022/11/27 07:28:21;;;;;;;;;;;9.40;99.90;;;;;;5094023;28;20363;-75
2022/11/27 07:30:54;;;;;;;;;;;9.40;99.90;;;;;;5075112;28;20341;-75
2022/11/27 07:33:20;;;;;;;;;;;9.30;99.90;;;;;;5093891;28;20006;-75
2022/11/27 07:35:45;;;;;;;;;;;9.30;99.90;;;;;;5093382;28;20318;-75
2022/11/27 07:38:11;;;;;;;;;;;9.30;99.90;;;;;;5093998;28;19915;-74
2022/11/27 07:40:37;;;;;;;;;;;9.30;99.90;;;;;;5093221;28;20358;-75
2022/11/27 07:43:02;;;;;;;;;;;9.20;99.90;;;;;;5093878;28;19930;-74
2022/11/27 07:45:28;;;;;;;;;;;9.20;99.90;;;;;;5093804;28;20344;-74
2022/11/27 07:47:53;;;;;;;;;;;9.20;99.90;;;;;;5093291;28;20375;-74
2022/11/27 07:50:19;;;;;;;;;;;9.20;99.90;;;;;;5093676;28;19912;-75
2022/11/27 07:52:45;;;;;;;;;;;9.20;99.90;;;;;;5093197;28;20269;-75
2022/11/27 07:55:10;;;;;;;;;;;9.20;99.90;;;;;;5093631;28;19999;-75
2022/11/27 07:57:36;;;;;;;;;;;9.10;99.90;;;;;;5093240;28;20376;-74
2022/11/27 08:00:02;;;;;;;;;;;9.10;99.90;;;;;;5093221;28;19919;-75
2022/11/27 08:02:27;;;;;;;;;;;9.10;99.90;;;;;;5093414;28;20000;-74
2022/11/27 08:04:53;;;;;;;;;;;9.10;99.90;;;;;;5074788;28;20008;-75
2022/11/27 08:07:18;;;;;;;;;;;9.10;99.90;;;;;;5093430;28;20364;-75
2022/11/27 08:09:44;;;;;;;;;;;9.10;99.90;;;;;;5092975;28;19940;-74
2022/11/27 08:12:09;;;;;;;;;;;9.10;99.90;;;;;;5093009;28;19915;-74
2022/11/27 08:14:35;;;;;;;;;;;9.10;99.90;;;;;;5093023;28;19908;-75
2022/11/27 08:17:01;;;;;;;;;;;9.10;99.90;;;;;;5075283;28;19951;-74
2022/11/27 08:19:26;;;;;;;;;;;9.10;99.90;;;;;;5093235;28;19913;-74
2022/11/27 08:21:52;;;;;;;;;;;9.10;99.90;;;;;;5092878;28;19919;-74
2022/11/27 08:24:17;;;;;;;;;;;9.10;99.90;;;;;;5092967;28;19909;-74
2022/11/27 08:26:43;;;;;;;;;;;9.10;99.90;;;;;;5074674;28;19946;-75
2022/11/27 08:29:11;;;;;;;;;;;9.10;99.90;;;;;;5093377;28;20369;-74
2022/11/27 08:31:37;;;;;;;;;;;9.10;99.90;;;;;;5096682;28;19908;-73
2022/11/27 08:34:04;;;;;;;;;;;9.10;99.90;;;;;;5097245;28;19908;-75
2022/11/27 08:36:29;;;;;;;;;;;9.10;99.90;;;;;;5097511;28;19912;-75
2022/11/27 08:38:55;;;;;;;;;;;9.10;99.90;;;;;;5096491;28;19919;-75
2022/11/27 08:41:21;;;;;;;;;;;9.10;99.90;;;;;;5097177;28;19912;-75
2022/11/27 08:43:46;;;;;;;;;;;9.10;99.90;;;;;;5096743;28;19909;-75
2022/11/27 08:46:12;;;;;;;;;;;9.00;99.90;;;;;;5097106;28;19912;-76
2022/11/27 08:48:37;;;;;;;;;;;9.00;99.90;;;;;;5096633;28;20365;-75
2022/11/27 08:51:08;;;;;;;;;;;8.90;99.90;;;;;;5096615;28;19912;-75
2022/11/27 08:53:36;;;;;;;;;;;8.80;99.90;;;;;;5096914;28;19917;-76
2022/11/27 08:56:08;;;;;;;;;;;8.80;99.90;;;;;;5096404;28;19973;-75
2022/11/27 08:58:34;;;;;;;;;;;8.70;99.90;;;;;;5096751;28;19969;-75
2022/11/27 09:01:05;;;;;;;;;;;8.70;99.90;;;;;;5078081;28;19923;-75
2022/11/27 09:03:31;;;;;;;;;;;8.80;99.90;;;;;;5112672;28;20376;-75
2022/11/27 09:05:56;;;;;;;;;;;8.80;99.90;;;;;;5095981;28;19941;-75
2022/11/27 09:08:22;;;;;;;;;;;8.80;99.90;;;;;;5096251;28;20376;-75
2022/11/27 09:10:47;;;;;;;;;;;8.80;99.90;;;;;;5096146;28;19908;-75
2022/11/27 09:13:13;;;;;;;;;;;8.90;99.90;;;;;;5096590;28;19952;-75
2022/11/27 09:15:38;;;;;;;;;;;8.90;99.90;;;;;;5096550;28;19915;-76
2022/11/27 09:18:04;;;;;;;;;;;9.00;99.90;;;;;;5096593;28;19908;-76
2022/11/27 09:20:30;;;;;;;;;;;9.10;99.90;;;;;;5096392;28;19920;-75
2022/11/27 09:22:55;;;;;;;;;;;9.20;99.90;;;;;;5077693;28;19916;-75
2022/11/27 09:25:21;;;;;;;;;;;9.30;99.90;;;;;;5095995;28;19985;-75
2022/11/27 09:27:46;;;;;;;;;;;9.40;99.90;;;;;;5096157;28;19916;-75
2022/11/27 09:30:12;;;;;;;;;;;9.40;99.90;;;;;;5078100;28;19908;-75
2022/11/27 09:32:38;;;;;;;;;;;9.50;99.90;;;;;;5095850;28;20373;-76
2022/11/27 09:35:03;;;;;;;;;;;9.50;99.90;;;;;;5095764;28;19909;-76
2022/11/27 09:37:29;;;;;;;;;;;9.50;99.90;;;;;;5095934;28;20242;-75
2022/11/27 09:39:55;;;;;;;;;;;9.60;99.90;;;;;;5095512;28;19935;-75
2022/11/27 09:42:29;;;;;;;;;;;9.60;99.90;;;;;;5094926;28;20258;-75
2022/11/27 09:44:57;;;;;;;;;;;9.60;99.90;;;;;;5095203;28;20424;-75
2022/11/27 09:47:37;;;;;;;;;;;9.70;99.90;;;;;;5095936;28;19915;-75
2022/11/27 09:50:06;;;;;;;;;;;9.80;99.90;;;;;;5095437;28;19908;-76
2022/11/27 09:52:38;;;;;;;;;;;9.90;99.90;;;;;;5095595;28;20238;-75
2022/11/27 09:55:10;;;;;;;;;;;9.90;99.90;;;;;;5095193;28;19996;-75
2022/11/27 09:57:36;;;;;;;;;;;10.00;99.90;;;;;;5095710;28;20014;-75
2022/11/27 10:00:10;;;;;;;;;;;10.10;99.90;;;;;;5094833;28;20494;-76
2022/11/27 10:02:35;;;;;;;;;;;10.10;99.90;;;;;;5095382;28;19926;-74
2022/11/27 10:05:11;;;;;;;;;;;10.20;99.90;;;;;;5095066;28;19904;-74
2022/11/27 10:07:44;;;;;;;;;;;10.20;99.90;;;;;;5095472;28;19908;-74
2022/11/27 10:10:16;;;;;;;;;;;10.20;99.90;;;;;;5095382;28;19912;-74
2022/11/27 10:12:54;;;;;;;;;;;10.30;99.90;;;;;;5095140;28;19962;-74
2022/11/27 10:15:19;;;;;;;;;;;10.30;99.90;;;;;;5095405;28;19908;-75
2022/11/27 10:17:54;;;;;;;;;;;10.40;99.90;;;;;;5094567;28;19957;-75
2022/11/27 10:20:27;;;;;;;;;;;10.40;99.90;;;;;;5095046;28;20315;-75
2022/11/27 10:22:59;;;;;;;;;;;10.40;99.90;;;;;;5094942;28;20349;-75
2022/11/27 10:25:28;;;;;;;;;;;10.50;99.90;;;;;;5095035;28;19909;-75
2022/11/27 10:27:59;;;;;;;;;;;10.60;99.90;;;;;;5094671;28;19915;-75
2022/11/27 10:30:26;;;;;;;;;;;10.70;99.90;;;;;;5094783;28;19912;-75
2022/11/27 10:32:54;;;;;;;;;;;10.80;99.90;;;;;;5093887;28;20253;-75
2022/11/27 10:35:24;;;;;;;;;;;10.90;99.90;;;;;;5094563;28;19919;-75
2022/11/27 10:38:00;;;;;;;;;;;11.10;99.90;;;;;;5094171;28;20015;-75
2022/11/27 10:40:28;;;;;;;;;;;11.20;99.90;;;;;;5094415;28;19977;-75
2022/11/27 10:43:13;;;;;;;;;;;11.30;99.90;;;;;;5093966;28;19916;-75
2022/11/27 10:45:43;;;;;;;;;;;11.40;99.90;;;;;;5086749;28;20327;-75
2022/11/27 10:48:10;;;;;;;;;;;11.40;99.90;;;;;;5110077;28;20007;-75
2022/11/27 10:50:35;;;;;;;;;;;11.40;99.90;;;;;;5094145;28;20365;-75
2022/11/27 10:53:03;;;;;;;;;;;11.40;99.90;;;;;;5075423;28;19915;-75
2022/11/27 10:56:01;;;;;;;;;;;11.40;99.90;;;;;;5094324;28;19912;-74
2022/11/27 10:58:41;;;;;;;;;;;11.40;99.90;;;;;;5070625;28;19924;-75
2022/11/27 11:01:11;;;;;;;;;;;11.40;99.90;;;;;;5093788;28;19916;-75
2022/11/27 11:03:36;;;;;;;;;;;11.40;99.90;;;;;;5093846;28;19908;-75
2022/11/27 11:06:07;;;;;;;;;;;11.40;99.90;;;;;;5075466;28;19908;-75
2022/11/27 11:08:33;;;;;;;;;;;11.40;99.90;;;;;;5094051;28;19969;-75
2022/11/27 11:11:00;;;;;;;;;;;11.40;99.90;;;;;;5093131;28;20312;-75
2022/11/27 11:13:41;;;;;;;;;;;11.50;99.90;;;;;;5094062;28;19908;-75
2022/11/27 11:16:09;;;;;;;;;;;11.50;99.90;;;;;;5093509;28;19912;-75
2022/11/27 11:18:43;;;;;;;;;;;11.50;99.90;;;;;;5093378;28;20350;-75
2022/11/27 11:21:14;;;;;;;;;;;11.50;99.90;;;;;;5093380;28;19919;-74
2022/11/27 11:23:40;;;;;;;;;;;11.50;99.90;;;;;;5093407;28;20383;-75
2022/11/27 11:26:24;;;;;;;;;;;11.50;99.90;;;;;;5075061;28;19947;-75
2022/11/27 11:28:52;;;;;;;;;;;11.60;99.90;;;;;;5093451;28;19923;-75
2022/11/27 11:31:20;;;;;;;;;;;11.60;99.90;;;;;;5093283;28;19909;-75
2022/11/27 11:33:54;;;;;;;;;;;11.60;99.90;;;;;;5093068;28;19908;-76
2022/11/27 11:36:19;;;;;;;;;;;11.70;99.90;;;;;;5093725;28;19912;-75
2022/11/27 11:38:45;;;;;;;;;;;11.70;99.90;;;;;;5092921;28;20369;-76
2022/11/27 11:41:12;;;;;;;;;;;11.70;99.90;;;;;;5093908;28;19912;-75
2022/11/27 11:43:38;;;;;;;;;;;11.70;99.90;;;;;;5093255;28;20342;-75
2022/11/27 11:46:15;;;;;;;;;;;11.80;99.90;;;;;;5092946;28;19947;-75
2022/11/27 11:48:51;;;;;;;;;;;11.90;99.90;;;;;;5093578;28;19915;-75
2022/11/27 11:51:22;;;;;;;;;;;12.00;99.90;;;;;;5093201;28;19958;-76
2022/11/27 11:53:56;;;;;;;;;;;12.00;99.90;;;;;;5092379;28;19908;-75
2022/11/27 11:56:33;;;;;;;;;;;12.00;99.90;;;;;;5092758;28;19928;-75
2022/11/27 11:58:58;;;;;;;;;;;12.00;99.90;;;;;;5092343;28;19912;-75
2022/11/27 12:01:24;;;;;;;;;;;12.00;99.90;;;;;;5093109;28;19919;-75
2022/11/27 12:04:01;;;;;;;;;;;11.90;99.90;;;;;;5092296;28;20412;-75
2022/11/27 12:06:33;;;;;;;;;;;11.80;99.90;;;;;;5092706;28;19908;-74
2022/11/27 12:09:13;;;;;;;;;;;11.70;99.90;;;;;;5092501;28;19908;-75
2022/11/27 12:11:39;;;;;;;;;;;11.70;99.90;;;;;;5092898;28;19908;-75
2022/11/27 12:14:04;;;;;;;;;;;11.60;99.90;;;;;;5092682;28;20353;-74
2022/11/27 12:17:09;;;;;;;;;;;11.50;99.90;;;;;;5074761;28;19977;-75
2022/11/27 12:19:40;;;;;;;;;;;11.40;99.90;;;;;;5050024;28;20016;-75
2022/11/27 12:22:25;;;;;;;;;;;11.30;99.90;;;;;;5050087;28;19909;-82
2022/11/27 12:25:15;;;;;;;;;;;11.10;99.90;;;;;;5033312;28;19920;-82
2022/11/27 12:27:49;;;;;;;;;;;11.00;99.90;;;;;;5050351;28;20369;-76
2022/11/27 12:30:28;;;;;;;;;;;10.90;99.90;;;;;;5050218;28;19908;-75
2022/11/27 12:32:53;;;;;;;;;;;10.80;99.90;;;;;;5049707;28;19959;-75
2022/11/27 12:35:28;;;;;;;;;;;10.90;99.90;;;;;;5049893;28;19913;-75
2022/11/27 12:38:06;;;;;;;;;;;10.80;99.90;;;;;;5049515;28;19915;-76
2022/11/27 12:40:55;;;;;;;;;;;10.90;99.90;;;;;;5050016;28;20016;-76
2022/11/27 12:43:24;;;;;;;;;;;10.90;99.90;;;;;;5031780;28;19971;-76
2022/11/27 12:45:53;;;;;;;;;;;10.90;99.90;;;;;;5049556;28;19948;-75
2022/11/27 12:48:22;;;;;;;;;;;10.80;99.90;;;;;;5050075;28;19943;-75
2022/11/27 12:50:50;;;;;;;;;;;10.80;99.90;;;;;;5079192;28;19908;-76
2022/11/27 12:53:27;;;;;;;;;;;10.80;99.90;;;;;;5092515;28;19912;-76
2022/11/27 12:55:59;;;;;;;;;;;10.70;99.90;;;;;;5092251;28;19908;-75
2022/11/27 12:58:27;;;;;;;;;;;10.70;99.90;;;;;;5092368;28;19920;-76
2022/11/27 13:00:57;;;;;;;;;;;10.70;99.90;;;;;;5092549;28;19954;-75
2022/11/27 13:03:27;;;;;;;;;;;10.70;99.90;;;;;;5092683;28;20407;-75
2022/11/27 13:06:10;;;;;;;;;;;10.70;99.90;;;;;;5088876;28;20407;-76
2022/11/27 13:08:57;;;;;;;;;;;10.70;99.90;;;;;;5089826;28;19918;-76
2022/11/27 13:11:27;;;;;;;;;;;10.70;99.90;;;;;;5089461;28;20273;-76
2022/11/27 13:14:02;;;;;;;;;;;10.70;99.90;;;;;;5071043;28;19930;-76
2022/11/27 13:16:45;;;;;;;;;;;10.80;99.90;;;;;;5089662;28;20345;-76
2022/11/27 13:19:10;;;;;;;;;;;10.80;99.90;;;;;;5089101;28;19912;-76
2022/11/27 13:21:37;;;;;;;;;;;10.80;99.90;;;;;;5071348;28;19914;-76
2022/11/27 13:24:03;;;;;;;;;;;10.80;99.90;;;;;;5088624;28;19919;-75
2022/11/27 13:26:32;;;;;;;;;;;10.80;99.90;;;;;;5089441;28;20003;-75
2022/11/27 13:28:59;;;;;;;;;;;10.90;99.90;;;;;;5089131;28;19913;-75
2022/11/27 13:31:29;;;;;;;;;;;10.90;99.90;;;;;;5089088;28;20293;-75
2022/11/27 13:34:01;;;;;;;;;;;10.90;99.90;;;;;;5070636;28;19909;-75
2022/11/27 13:36:29;;;;;;;;;;;10.90;99.90;;;;;;5088781;28;19947;-76
2022/11/27 13:38:56;;;;;;;;;;;10.80;99.90;;;;;;5089064;28;20004;-75
2022/11/27 13:41:23;;;;;;;;;;;10.80;99.90;;;;;;5089189;28;20280;-75
2022/11/27 13:43:50;;;;;;;;;;;10.90;99.90;;;;;;5088225;28;19908;-76
2022/11/27 13:46:22;;;;;;;;;;;10.90;99.90;;;;;;5089201;28;19912;-75
2022/11/27 13:48:51;;;;;;;;;;;10.80;99.90;;;;;;5088723;28;20374;-75
2022/11/27 13:51:43;;;;;;;;;;;10.80;99.90;;;;;;5088786;28;19912;-75
2022/11/27 13:54:16;;;;;;;;;;;10.80;99.90;;;;;;5084807;28;19904;-75
2022/11/27 13:56:42;;;;;;;;;;;10.80;99.90;;;;;;5089015;28;19916;-75
2022/11/27 13:59:16;;;;;;;;;;;10.80;99.90;;;;;;5088226;28;19908;-75
2022/11/27 14:01:54;;;;;;;;;;;10.80;99.90;;;;;;5089170;28;20413;-75
2022/11/27 14:04:19;;;;;;;;;;;10.70;99.90;;;;;;5088572;28;19921;-75
2022/11/27 14:06:51;;;;;;;;;;;10.70;99.90;;;;;;5088362;28;19915;-74
2022/11/27 14:09:16;;;;;;;;;;;10.70;99.90;;;;;;5088781;28;20039;-75
2022/11/27 14:11:46;;;;;;;;;;;10.70;99.90;;;;;;5088356;28;20050;-75
2022/11/27 14:14:19;;;;;;;;;;;10.70;99.90;;;;;;5088149;28;19909;-75
2022/11/27 14:17:11;;;;;;;;;;;10.70;99.90;;;;;;5079406;28;19951;-75
2022/11/27 14:19:43;;;;;;;;;;;10.70;99.90;;;;;;5043947;28;20369;-75
2022/11/27 14:22:16;;;;;;;;;;;10.70;99.90;;;;;;5074205;28;19952;-74
2022/11/27 14:24:44;;;;;;;;;;;10.60;99.90;;;;;;5074884;28;19912;-75
2022/11/27 14:27:18;;;;;;;;;;;10.60;99.90;;;;;;5056400;28;20484;-75
2022/11/27 14:29:44;;;;;;;;;;;10.60;99.90;;;;;;5075275;28;19916;-75